createdAt,value
2019-03-23T00:02:20.510Z,8.51
2019-03-23T00:04:49.032Z,8.49
2019-03-23T00:07:18.394Z,8.44
2019-03-23T00:09:46.889Z,8.42
2019-03-23T00:12:15.418Z,8.39
2019-03-23T00:14:43.848Z,8.39
2019-03-23T00:17:12.306Z,8.37
2019-03-23T00:19:40.819Z,8.35
2019-03-23T00:22:09.353Z,8.31
2019-03-23T00:24:37.822Z,8.28
2019-03-23T00:27:06.328Z,8.25
2019-03-23T00:29:34.802Z,8.23
2019-03-23T00:32:03.270Z,8.21
2019-03-23T00:34:31.776Z,8.20
2019-03-23T00:37:00.312Z,8.18
2019-03-23T00:39:28.784Z,8.16
2019-03-23T00:41:57.286Z,8.15
2019-03-23T00:44:25.760Z,8.15
2019-03-23T00:46:54.232Z,8.13
2019-03-23T00:49:22.768Z,8.12
2019-03-23T00:51:51.204Z,8.11
2019-03-23T00:54:19.679Z,8.09
2019-03-23T00:56:48.193Z,8.07
2019-03-23T00:59:16.666Z,8.06
2019-03-23T01:01:45.122Z,8.02
2019-03-23T01:04:13.628Z,8.01
2019-03-23T01:06:51.815Z,7.97
2019-03-23T01:09:12.475Z,7.96
2019-03-23T01:11:40.975Z,7.94
2019-03-23T01:14:09.445Z,7.94
2019-03-23T01:16:37.915Z,7.92
2019-03-23T01:19:06.416Z,7.91
2019-03-23T01:21:34.887Z,7.89
2019-03-23T01:24:03.358Z,7.90
2019-03-23T01:26:31.931Z,7.88
2019-03-23T01:29:00.403Z,7.88
2019-03-23T01:31:29.028Z,7.88
2019-03-23T01:33:57.534Z,7.89
2019-03-23T01:36:25.988Z,7.88
2019-03-23T01:38:54.461Z,7.88
2019-03-23T01:41:23.033Z,7.87
2019-03-23T01:43:51.496Z,7.87
2019-03-23T01:46:19.963Z,7.85
2019-03-23T01:48:48.467Z,7.85
2019-03-23T01:51:16.951Z,7.84
2019-03-23T01:53:45.561Z,7.84
2019-03-23T01:56:14.064Z,7.83
2019-03-23T01:58:42.545Z,7.83
2019-03-23T02:01:11.015Z,7.83
2019-03-23T02:03:39.493Z,7.82
2019-03-23T02:06:07.966Z,7.82
2019-03-23T02:08:36.437Z,7.83
2019-03-23T02:11:05.312Z,7.84
2019-03-23T02:13:33.781Z,7.82
2019-03-23T02:16:02.236Z,7.83
2019-03-23T02:18:30.747Z,7.81
2019-03-23T02:20:59.210Z,7.81
2019-03-23T02:23:27.676Z,7.78
2019-03-23T02:25:56.196Z,7.76
2019-03-23T02:28:24.649Z,7.75
2019-03-23T02:30:53.109Z,7.75
2019-03-23T02:33:21.800Z,7.75
2019-03-23T02:35:50.258Z,7.76
2019-03-23T02:38:18.747Z,7.76
2019-03-23T02:40:47.230Z,7.76
2019-03-23T02:43:15.686Z,7.76
2019-03-23T02:45:44.174Z,7.75
2019-03-23T02:48:12.754Z,7.76
2019-03-23T02:50:41.240Z,7.76
2019-03-23T02:53:09.705Z,7.73
2019-03-23T02:55:38.219Z,7.72
2019-03-23T02:58:06.688Z,7.71
2019-03-23T03:00:35.172Z,7.70
2019-03-23T03:03:03.679Z,7.70
2019-03-23T03:05:32.156Z,7.69
2019-03-23T03:08:00.688Z,7.69
2019-03-23T03:10:41.905Z,7.68
2019-03-23T03:13:10.749Z,7.67
2019-03-23T03:15:39.294Z,7.66
2019-03-23T03:18:08.078Z,7.64
2019-03-23T03:20:36.548Z,7.63
2019-03-23T03:23:05.012Z,7.62
2019-03-23T03:25:33.516Z,7.60
2019-03-23T03:28:02.000Z,7.59
2019-03-23T03:30:30.466Z,7.60
2019-03-23T03:32:58.959Z,7.60
2019-03-23T03:35:27.424Z,7.63
2019-03-23T03:37:57.261Z,7.66
2019-03-23T03:40:26.072Z,7.67
2019-03-23T03:42:54.542Z,7.70
2019-03-23T03:45:28.875Z,7.72
2019-03-23T03:47:57.497Z,7.76
2019-03-23T03:50:25.997Z,7.79
2019-03-23T03:52:54.445Z,7.82
2019-03-23T03:55:22.942Z,7.85
2019-03-23T03:57:51.403Z,7.87
2019-03-23T04:00:19.872Z,7.89
2019-03-23T04:02:48.370Z,7.93
2019-03-23T04:05:16.908Z,7.95
2019-03-23T04:07:45.733Z,7.96
2019-03-23T04:10:14.289Z,7.99
2019-03-23T04:12:42.746Z,8.01
2019-03-23T04:15:12.275Z,8.04
2019-03-23T04:17:40.772Z,8.08
2019-03-23T04:20:10.472Z,8.12
2019-03-23T04:22:38.942Z,8.16
2019-03-23T04:25:08.306Z,8.20
2019-03-23T04:27:36.744Z,8.23
2019-03-23T04:30:06.780Z,8.27
2019-03-23T04:32:35.267Z,8.30
2019-03-23T04:35:04.563Z,8.34
2019-03-23T04:37:33.027Z,8.36
2019-03-23T04:40:01.621Z,8.40
2019-03-23T04:42:30.068Z,8.43
2019-03-23T04:44:58.532Z,8.47
2019-03-23T04:47:27.028Z,8.48
2019-03-23T04:49:55.482Z,8.51
2019-03-23T04:52:23.958Z,8.52
2019-03-23T04:54:52.465Z,8.54
2019-03-23T04:57:20.951Z,8.57
2019-03-23T04:59:49.399Z,8.60
2019-03-23T05:02:17.914Z,8.62
2019-03-23T05:04:46.380Z,8.64
2019-03-23T05:07:14.828Z,8.67
2019-03-23T05:09:43.319Z,8.67
2019-03-23T05:12:11.777Z,8.69
2019-03-23T05:14:40.247Z,8.70
2019-03-23T05:17:09.800Z,8.71
2019-03-23T05:19:38.260Z,8.71
2019-03-23T05:22:06.740Z,8.70
2019-03-23T05:24:35.247Z,8.70
2019-03-23T05:27:03.706Z,8.70
2019-03-23T05:29:32.174Z,8.70
2019-03-23T05:32:00.675Z,8.69
2019-03-23T05:34:29.138Z,8.70
2019-03-23T05:36:57.608Z,8.51
2019-03-23T05:39:26.094Z,8.71
2019-03-23T05:41:54.558Z,8.72
2019-03-23T05:44:23.032Z,8.70
2019-03-23T05:46:51.531Z,8.70
2019-03-23T05:49:20.009Z,8.70
2019-03-23T05:51:48.473Z,8.71
2019-03-23T05:54:17.002Z,8.72
2019-03-23T05:56:45.483Z,8.71
2019-03-23T05:59:13.949Z,8.71
2019-03-23T06:01:42.438Z,8.72
2019-03-23T06:04:10.980Z,8.72
2019-03-23T06:06:39.465Z,8.73
2019-03-23T06:09:08.054Z,8.76
2019-03-23T06:11:36.519Z,8.79
2019-03-23T06:14:05.061Z,8.82
2019-03-23T06:16:33.596Z,8.89
2019-03-23T06:19:02.177Z,8.94
2019-03-23T06:21:30.649Z,8.98
2019-03-23T06:23:59.151Z,9.03
2019-03-23T06:26:27.616Z,9.07
2019-03-23T06:28:56.093Z,9.13
2019-03-23T06:31:24.598Z,9.16
2019-03-23T06:33:53.070Z,9.19
2019-03-23T06:36:21.533Z,9.22
2019-03-23T06:38:51.619Z,9.27
2019-03-23T06:41:20.081Z,9.29
2019-03-23T06:43:48.556Z,9.34
2019-03-23T06:46:17.304Z,9.37
2019-03-23T06:48:45.848Z,9.43
2019-03-23T06:51:14.288Z,9.47
2019-03-23T06:53:42.813Z,9.51
2019-03-23T06:56:11.287Z,9.56
2019-03-23T06:58:40.096Z,9.60
2019-03-23T07:01:08.591Z,9.66
2019-03-23T07:03:37.477Z,9.71
2019-03-23T07:06:06.016Z,9.74
2019-03-23T07:08:34.550Z,9.79
2019-03-23T07:11:03.021Z,9.83
2019-03-23T07:13:31.492Z,9.88
2019-03-23T07:15:59.997Z,9.91
2019-03-23T07:18:28.468Z,9.94
2019-03-23T07:20:57.942Z,9.99
2019-03-23T07:23:26.459Z,10.03
2019-03-23T07:25:54.941Z,10.05
2019-03-23T07:28:23.420Z,10.07
2019-03-23T07:30:51.944Z,10.07
2019-03-23T07:33:20.449Z,10.11
2019-03-23T07:35:49.166Z,10.14
2019-03-23T07:38:17.649Z,10.15
2019-03-23T07:40:46.130Z,10.17
2019-03-23T07:43:14.621Z,10.20
2019-03-23T07:45:43.136Z,10.24
2019-03-23T07:48:11.616Z,10.29
2019-03-23T07:50:40.090Z,10.32
2019-03-23T07:53:08.603Z,10.37
2019-03-23T07:55:37.080Z,10.42
2019-03-23T07:58:05.567Z,10.44
2019-03-23T08:00:34.060Z,10.46
2019-03-23T08:03:02.544Z,10.48
2019-03-23T08:05:31.095Z,10.51
2019-03-23T08:07:59.620Z,10.53
2019-03-23T08:10:29.733Z,10.56
2019-03-23T08:12:58.213Z,10.57
2019-03-23T08:15:26.802Z,10.59
2019-03-23T08:17:55.814Z,10.59
2019-03-23T08:20:25.154Z,10.59
2019-03-23T08:22:55.462Z,10.57
2019-03-23T08:25:23.938Z,10.57
2019-03-23T08:27:52.703Z,10.57
2019-03-23T08:30:21.261Z,10.53
2019-03-23T08:32:49.759Z,10.50
2019-03-23T08:35:18.301Z,10.46
2019-03-23T08:37:46.812Z,10.44
2019-03-23T08:40:15.299Z,10.44
2019-03-23T08:42:43.761Z,10.44
2019-03-23T08:45:12.348Z,10.45
2019-03-23T08:47:40.822Z,10.45
2019-03-23T08:50:09.365Z,10.47
2019-03-23T08:52:37.858Z,10.48
2019-03-23T08:55:07.094Z,10.47
2019-03-23T08:57:35.656Z,10.44
2019-03-23T09:00:05.799Z,10.43
2019-03-23T09:02:34.264Z,10.41
2019-03-23T09:05:02.735Z,10.38
2019-03-23T09:07:31.244Z,10.36
2019-03-23T09:10:01.014Z,10.39
2019-03-23T09:12:29.489Z,10.41
2019-03-23T09:14:57.992Z,10.42
2019-03-23T09:17:26.487Z,10.43
2019-03-23T09:19:54.916Z,10.47
2019-03-23T09:22:23.636Z,10.49
2019-03-23T09:24:56.989Z,10.52
2019-03-23T09:27:22.671Z,10.57
2019-03-23T09:29:51.160Z,10.60
2019-03-23T09:32:19.628Z,10.62
2019-03-23T09:34:48.125Z,10.65
2019-03-23T09:37:16.652Z,10.65
2019-03-23T09:39:46.861Z,10.64
2019-03-23T09:42:15.355Z,10.65
2019-03-23T09:44:43.858Z,10.66
2019-03-23T09:47:12.340Z,10.67
2019-03-23T09:49:40.825Z,10.70
2019-03-23T09:52:09.322Z,10.78
2019-03-23T09:54:37.803Z,10.86
2019-03-23T09:57:06.342Z,10.91
2019-03-23T09:59:34.839Z,11.01
2019-03-23T10:02:03.302Z,11.12
2019-03-23T10:04:31.810Z,11.24
2019-03-23T10:07:00.291Z,11.40
2019-03-23T10:09:28.758Z,11.55
2019-03-23T10:11:59.161Z,11.65
2019-03-23T10:14:27.490Z,11.75
2019-03-23T10:16:55.965Z,11.81
2019-03-23T10:19:24.503Z,11.85
2019-03-23T10:21:52.991Z,11.88
2019-03-23T10:24:21.468Z,11.88
2019-03-23T10:26:52.169Z,11.88
2019-03-23T10:29:20.474Z,11.91
2019-03-23T10:31:48.952Z,11.86
2019-03-23T10:34:17.460Z,11.88
2019-03-23T10:36:45.941Z,11.94
2019-03-23T10:39:14.417Z,11.96
2019-03-23T10:41:42.915Z,12.03
2019-03-23T10:44:11.380Z,12.09
2019-03-23T10:46:39.873Z,12.08
2019-03-23T10:49:08.394Z,12.04
2019-03-23T10:51:36.871Z,12.04
2019-03-23T10:54:05.340Z,12.05
2019-03-23T10:56:33.842Z,12.11
2019-03-23T10:59:02.350Z,12.21
2019-03-23T11:01:30.858Z,12.25
2019-03-23T11:03:59.358Z,12.26
2019-03-23T11:06:27.816Z,12.32
2019-03-23T11:08:56.288Z,12.39
2019-03-23T11:11:24.827Z,12.43
2019-03-23T11:13:53.314Z,12.44
2019-03-23T11:16:21.780Z,12.45
2019-03-23T11:18:50.349Z,12.48
2019-03-23T11:21:18.809Z,12.48
2019-03-23T11:23:47.280Z,12.52
2019-03-23T11:26:15.791Z,12.58
2019-03-23T11:28:44.403Z,12.65
2019-03-23T11:31:13.061Z,12.67
2019-03-23T11:33:41.548Z,12.69
2019-03-23T11:36:10.023Z,12.72
2019-03-23T11:38:38.483Z,12.73
2019-03-23T11:41:07.064Z,12.75
2019-03-23T11:43:35.525Z,12.78
2019-03-23T11:46:04.054Z,12.83
2019-03-23T11:48:32.567Z,12.87
2019-03-23T11:51:01.033Z,12.91
2019-03-23T11:53:29.498Z,12.95
2019-03-23T11:55:57.987Z,12.98
2019-03-23T11:58:26.476Z,13.05
2019-03-23T12:00:54.930Z,13.11
2019-03-23T12:03:23.457Z,13.20
2019-03-23T12:05:51.928Z,13.29
2019-03-23T12:08:20.415Z,13.38
2019-03-23T12:10:48.915Z,13.44
2019-03-23T12:13:17.426Z,13.47
2019-03-23T12:15:45.907Z,13.49
2019-03-23T12:18:14.396Z,13.53
2019-03-23T12:20:42.877Z,13.60
2019-03-23T12:23:11.351Z,13.67
2019-03-23T12:25:39.871Z,13.77
2019-03-23T12:28:08.331Z,13.83
2019-03-23T12:30:37.906Z,13.84
2019-03-23T12:33:06.419Z,13.84
2019-03-23T12:35:34.903Z,13.93
2019-03-23T12:38:03.387Z,14.02
2019-03-23T12:40:31.919Z,14.12
2019-03-23T12:43:00.393Z,14.17
2019-03-23T12:45:28.852Z,14.20
2019-03-23T12:47:57.399Z,14.31
2019-03-23T12:50:25.899Z,14.40
2019-03-23T12:52:54.368Z,14.46
2019-03-23T12:55:22.866Z,14.26
2019-03-23T12:57:51.366Z,14.55
2019-03-23T13:00:19.912Z,14.63
2019-03-23T13:02:48.464Z,14.71
2019-03-23T13:05:16.932Z,14.77
2019-03-23T13:07:45.395Z,14.83
2019-03-23T13:10:14.654Z,14.90
2019-03-23T13:12:43.127Z,14.93
2019-03-23T13:15:14.119Z,14.95
2019-03-23T13:17:42.663Z,14.96
2019-03-23T13:20:11.683Z,14.93
2019-03-23T13:22:40.303Z,14.86
2019-03-23T13:25:09.561Z,14.76
2019-03-23T13:27:38.037Z,14.70
2019-03-23T13:30:18.829Z,14.62
2019-03-23T13:32:48.595Z,14.52
2019-03-23T13:35:17.069Z,14.42
2019-03-23T13:37:45.663Z,14.35
2019-03-23T13:40:14.268Z,14.28
2019-03-23T13:42:42.817Z,14.19
2019-03-23T13:45:11.591Z,14.12
2019-03-23T13:47:40.530Z,14.04
2019-03-23T13:50:10.337Z,13.98
2019-03-23T13:52:39.422Z,13.95
2019-03-23T13:55:08.082Z,13.92
2019-03-23T13:57:36.580Z,13.91
2019-03-23T14:00:07.311Z,13.92
2019-03-23T14:02:35.779Z,13.95
2019-03-23T14:05:05.074Z,13.98
2019-03-23T14:07:33.582Z,14.02
2019-03-23T14:10:02.048Z,14.10
2019-03-23T14:12:30.524Z,14.16
2019-03-23T14:14:59.047Z,14.20
2019-03-23T14:17:27.523Z,14.20
2019-03-23T14:19:56.006Z,14.19
2019-03-23T14:22:24.507Z,14.18
2019-03-23T14:24:52.961Z,14.16
2019-03-23T14:27:21.441Z,14.10
2019-03-23T14:29:50.035Z,14.03
2019-03-23T14:32:18.498Z,13.97
2019-03-23T14:34:47.177Z,13.88
2019-03-23T14:37:15.692Z,13.82
2019-03-23T14:39:44.162Z,13.73
2019-03-23T14:42:12.627Z,13.63
2019-03-23T14:44:41.151Z,13.54
2019-03-23T14:47:09.615Z,13.46
2019-03-23T14:49:38.094Z,13.43
2019-03-23T14:52:06.604Z,13.39
2019-03-23T14:54:35.091Z,13.35
2019-03-23T14:57:03.577Z,13.34
2019-03-23T14:59:32.064Z,13.33
2019-03-23T15:02:00.543Z,13.32
2019-03-23T15:04:29.029Z,13.33
2019-03-23T15:06:57.552Z,13.34
2019-03-23T15:09:26.026Z,13.30
2019-03-23T15:11:54.509Z,13.29
2019-03-23T15:14:23.071Z,13.28
2019-03-23T15:16:51.526Z,13.28
2019-03-23T15:19:19.993Z,13.27
2019-03-23T15:21:48.499Z,13.25
2019-03-23T15:24:16.972Z,13.22
2019-03-23T15:26:45.449Z,13.21
2019-03-23T15:29:14.041Z,13.19
2019-03-23T15:31:42.501Z,13.19
2019-03-23T15:34:10.961Z,13.18
2019-03-23T15:36:40.741Z,13.21
2019-03-23T15:39:09.215Z,13.22
2019-03-23T15:41:37.675Z,13.19
2019-03-23T15:44:06.183Z,13.19
2019-03-23T15:46:34.655Z,13.18
2019-03-23T15:49:03.126Z,13.20
2019-03-23T15:51:31.637Z,13.22
2019-03-23T15:54:00.104Z,13.27
2019-03-23T15:56:28.577Z,13.31
2019-03-23T15:58:57.083Z,13.32
2019-03-23T16:01:25.545Z,13.32
2019-03-23T16:03:54.016Z,13.28
2019-03-23T16:06:22.684Z,13.24
2019-03-23T16:08:51.167Z,13.18
2019-03-23T16:11:19.708Z,13.14
2019-03-23T16:13:48.203Z,13.10
2019-03-23T16:16:16.676Z,13.04
2019-03-23T16:18:45.228Z,13.01
2019-03-23T16:21:13.731Z,12.97
2019-03-23T16:23:42.209Z,12.93
2019-03-23T16:26:10.687Z,12.88
2019-03-23T16:28:39.202Z,12.82
2019-03-23T16:31:07.683Z,12.74
2019-03-23T16:33:36.147Z,12.68
2019-03-23T16:36:04.636Z,12.62
2019-03-23T16:38:33.322Z,12.56
2019-03-23T16:41:01.783Z,12.49
2019-03-23T16:43:30.369Z,12.45
2019-03-23T16:45:58.847Z,12.40
2019-03-23T16:48:27.368Z,12.33
2019-03-23T16:50:55.847Z,12.26
2019-03-23T16:53:25.540Z,12.21
2019-03-23T16:55:53.984Z,12.15
2019-03-23T16:58:22.506Z,12.08
2019-03-23T17:00:50.991Z,12.02
2019-03-23T17:03:19.459Z,11.95
2019-03-23T17:05:47.980Z,11.89
2019-03-23T17:08:16.448Z,11.81
2019-03-23T17:10:45.005Z,11.74
2019-03-23T17:13:13.515Z,11.66
2019-03-23T17:15:42.016Z,11.59
2019-03-23T17:18:10.478Z,11.50
2019-03-23T17:20:38.977Z,11.42
2019-03-23T17:23:07.460Z,11.33
2019-03-23T17:25:37.651Z,11.24
2019-03-23T17:28:06.222Z,11.16
2019-03-23T17:30:34.688Z,11.08
2019-03-23T17:33:03.163Z,10.99
2019-03-23T17:35:31.693Z,10.92
2019-03-23T17:38:00.155Z,10.84
2019-03-23T17:40:29.667Z,10.77
2019-03-23T17:43:05.605Z,10.70
2019-03-23T17:45:31.363Z,10.65
2019-03-23T17:47:59.838Z,10.58
2019-03-23T17:50:28.701Z,10.52
2019-03-23T17:52:57.230Z,10.45
2019-03-23T17:55:25.839Z,10.39
2019-03-23T17:57:56.678Z,10.33
2019-03-23T18:00:31.893Z,10.28
2019-03-23T18:03:01.645Z,10.22
2019-03-23T18:05:31.489Z,10.16
2019-03-23T18:08:00.077Z,10.10
2019-03-23T18:10:29.820Z,10.07
2019-03-23T18:13:00.169Z,10.02
2019-03-23T18:15:30.322Z,9.98
2019-03-23T18:17:59.474Z,9.91
2019-03-23T18:20:30.682Z,9.88
2019-03-23T18:22:59.917Z,9.84
2019-03-23T18:25:28.564Z,9.79
2019-03-23T18:28:01.904Z,9.76
2019-03-23T18:30:38.940Z,9.73
2019-03-23T18:33:09.714Z,9.70
2019-03-23T18:35:40.070Z,9.65
2019-03-23T18:38:08.743Z,9.60
2019-03-23T18:40:37.347Z,9.54
2019-03-23T18:43:08.386Z,9.50
2019-03-23T18:45:37.199Z,9.44
2019-03-23T18:48:07.830Z,9.41
2019-03-23T18:50:39.040Z,9.35
2019-03-23T18:53:08.667Z,9.30
2019-03-23T18:55:40.224Z,9.26
2019-03-23T18:58:11.808Z,9.22
2019-03-23T19:00:44.896Z,9.18
2019-03-23T19:03:13.441Z,9.15
2019-03-23T19:05:41.980Z,9.10
2019-03-23T19:08:11.906Z,9.07
2019-03-23T19:10:40.542Z,9.03
2019-03-23T19:13:09.056Z,8.99
2019-03-23T19:15:37.630Z,8.93
2019-03-23T19:18:08.970Z,8.90
2019-03-23T19:20:37.515Z,8.84
2019-03-23T19:23:06.018Z,8.81
2019-03-23T19:25:34.645Z,8.74
2019-03-23T19:28:03.113Z,8.69
2019-03-23T19:30:31.619Z,8.62
2019-03-23T19:33:00.083Z,8.57
2019-03-23T19:35:28.582Z,8.51
2019-03-23T19:37:57.160Z,8.45
2019-03-23T19:40:25.637Z,8.41
2019-03-23T19:42:54.123Z,8.37
2019-03-23T19:45:22.898Z,8.32
2019-03-23T19:47:51.396Z,8.28
2019-03-23T19:50:19.968Z,8.25
2019-03-23T19:52:48.592Z,8.22
2019-03-23T19:55:17.650Z,8.18
2019-03-23T19:57:46.086Z,8.16
2019-03-23T20:00:14.842Z,8.14
2019-03-23T20:02:43.390Z,8.13
2019-03-23T20:05:11.904Z,8.12
2019-03-23T20:07:40.414Z,8.13
2019-03-23T20:10:09.920Z,8.12
2019-03-23T20:12:38.396Z,8.10
2019-03-23T20:15:08.257Z,8.09
2019-03-23T20:17:36.798Z,8.06
2019-03-23T20:20:07.662Z,8.05
2019-03-23T20:22:36.154Z,8.04
2019-03-23T20:25:06.271Z,8.04
2019-03-23T20:27:34.736Z,8.05
2019-03-23T20:30:04.198Z,8.06
2019-03-23T20:32:32.660Z,8.05
2019-03-23T20:35:01.105Z,8.07
2019-03-23T20:37:29.631Z,8.07
2019-03-23T20:39:58.083Z,8.08
2019-03-23T20:42:26.543Z,8.09
2019-03-23T20:44:55.030Z,8.08
2019-03-23T20:47:23.695Z,8.08
2019-03-23T20:49:53.523Z,8.08
2019-03-23T20:52:22.031Z,8.08
2019-03-23T20:54:50.493Z,8.07
2019-03-23T20:57:23.897Z,8.05
2019-03-23T20:59:49.230Z,8.05
2019-03-23T21:02:17.635Z,8.00
2019-03-23T21:04:46.106Z,7.98
2019-03-23T21:07:14.605Z,7.95
2019-03-23T21:09:43.068Z,7.90
2019-03-23T21:12:11.572Z,7.87
2019-03-23T21:14:40.074Z,7.84
2019-03-23T21:17:08.549Z,7.80
2019-03-23T21:19:37.009Z,7.77
2019-03-23T21:22:05.666Z,7.74
2019-03-23T21:24:34.112Z,7.73
2019-03-23T21:27:02.586Z,7.70
2019-03-23T21:29:31.073Z,7.67
2019-03-23T21:31:59.559Z,7.64
2019-03-23T21:34:28.044Z,7.61
2019-03-23T21:36:56.536Z,7.58
2019-03-23T21:39:25.001Z,7.56
2019-03-23T21:41:53.452Z,7.52
2019-03-23T21:44:30.706Z,7.50
2019-03-23T21:46:52.128Z,7.49
2019-03-23T21:49:20.855Z,7.46
2019-03-23T21:51:49.375Z,7.47
2019-03-23T21:54:17.845Z,7.47
2019-03-23T21:56:46.326Z,7.48
2019-03-23T21:59:14.813Z,7.49
2019-03-23T22:01:43.290Z,7.50
2019-03-23T22:04:11.749Z,7.50
2019-03-23T22:06:40.246Z,7.51
2019-03-23T22:09:08.735Z,7.51
2019-03-23T22:11:37.191Z,7.50
2019-03-23T22:14:05.787Z,7.51
2019-03-23T22:16:34.256Z,7.52
2019-03-23T22:19:02.731Z,7.51
2019-03-23T22:21:31.217Z,7.48
2019-03-23T22:23:59.686Z,7.47
2019-03-23T22:26:28.142Z,7.43
2019-03-23T22:28:56.645Z,7.40
2019-03-23T22:31:25.125Z,7.34
2019-03-23T22:33:53.580Z,7.31
2019-03-23T22:36:22.087Z,7.29
2019-03-23T22:38:50.546Z,7.26
2019-03-23T22:41:19.048Z,7.24
2019-03-23T22:43:47.536Z,7.20
2019-03-23T22:46:16.111Z,7.18
2019-03-23T22:48:44.603Z,7.17
2019-03-23T22:51:14.094Z,7.14
2019-03-23T22:53:42.566Z,7.14
2019-03-23T22:56:11.022Z,7.13
2019-03-23T22:58:39.510Z,7.11
2019-03-23T23:01:07.952Z,7.09
2019-03-23T23:03:36.498Z,7.07
2019-03-23T23:06:05.013Z,7.05
2019-03-23T23:08:33.478Z,7.03
2019-03-23T23:11:01.965Z,7.02
2019-03-23T23:13:30.459Z,6.99
2019-03-23T23:15:58.942Z,6.97
2019-03-23T23:18:27.397Z,6.96
2019-03-23T23:20:56.269Z,6.92
2019-03-23T23:23:24.725Z,6.90
2019-03-23T23:25:53.186Z,6.88
2019-03-23T23:28:21.686Z,6.86
2019-03-23T23:30:50.128Z,6.85
2019-03-23T23:33:18.590Z,6.84
2019-03-23T23:35:47.071Z,6.82
2019-03-23T23:38:15.522Z,6.82
2019-03-23T23:40:43.975Z,6.80
2019-03-23T23:43:12.506Z,6.79
2019-03-23T23:45:40.986Z,6.78
2019-03-23T23:48:09.452Z,6.78
2019-03-23T23:50:37.949Z,6.78
2019-03-23T23:53:07.374Z,6.76
2019-03-23T23:55:35.839Z,6.74
2019-03-23T23:58:04.410Z,6.73
